createdAt,value
2019-03-04T00:00:29.410Z,2.57
2019-03-04T00:02:58.539Z,2.10
2019-03-04T00:05:27.035Z,2.23
2019-03-04T00:07:55.413Z,2.30
2019-03-04T00:10:23.788Z,2.33
2019-03-04T00:12:52.074Z,2.27
2019-03-04T00:15:20.364Z,2.10
2019-03-04T00:17:48.667Z,1.90
2019-03-04T00:20:16.956Z,2.00
2019-03-04T00:22:45.282Z,2.30
2019-03-04T00:25:13.635Z,1.92
2019-03-04T00:27:41.932Z,2.17
2019-03-04T00:30:11.177Z,1.97
2019-03-04T00:32:39.458Z,2.93
2019-03-04T00:35:09.405Z,2.03
2019-03-04T00:37:37.703Z,2.40
2019-03-04T00:40:10.753Z,2.37
2019-03-04T00:42:39.099Z,2.07
2019-03-04T00:45:09.700Z,2.07
2019-03-04T00:47:37.982Z,2.00
2019-03-04T00:50:15.910Z,1.80
2019-03-04T00:52:44.221Z,2.10
2019-03-04T00:55:12.537Z,1.95
2019-03-04T00:57:40.827Z,2.00
2019-03-04T01:00:20.870Z,2.70
2019-03-04T01:02:49.153Z,1.97
2019-03-04T01:05:17.452Z,1.87
2019-03-04T01:07:45.753Z,1.93
2019-03-04T01:10:15.668Z,1.70
2019-03-04T01:12:43.943Z,2.20
2019-03-04T01:15:17.339Z,1.57
2019-03-04T01:17:45.735Z,2.00
2019-03-04T01:20:16.816Z,2.00
2019-03-04T01:22:45.128Z,2.00
2019-03-04T01:25:15.590Z,2.00
2019-03-04T01:27:43.962Z,2.50
2019-03-04T01:30:15.257Z,2.10
2019-03-04T01:32:43.560Z,2.43
2019-03-04T01:35:11.858Z,1.80
2019-03-04T01:37:40.143Z,1.90
2019-03-04T01:40:16.720Z,1.70
2019-03-04T01:42:45.026Z,1.70
2019-03-04T01:45:15.137Z,1.60
2019-03-04T01:47:43.446Z,2.10
2019-03-04T01:50:13.495Z,1.77
2019-03-04T01:52:41.793Z,1.70
2019-03-04T01:55:14.225Z,1.53
2019-03-04T01:57:42.591Z,2.00
2019-03-04T02:00:15.305Z,1.90
2019-03-04T02:02:43.757Z,1.80
2019-03-04T02:05:12.129Z,1.70
2019-03-04T02:07:40.466Z,1.73
2019-03-04T02:10:14.195Z,1.40
2019-03-04T02:12:42.613Z,1.30
2019-03-04T02:15:13.429Z,1.33
2019-03-04T02:17:41.765Z,1.50
2019-03-04T02:20:12.337Z,1.27
2019-03-04T02:22:40.632Z,1.17
2019-03-04T02:25:11.432Z,2.07
2019-03-04T02:27:42.353Z,1.10
2019-03-04T02:30:16.239Z,1.20
2019-03-04T02:32:44.520Z,1.40
2019-03-04T02:35:12.861Z,1.40
2019-03-04T02:37:41.147Z,1.40
2019-03-04T02:40:09.514Z,1.43
2019-03-04T02:42:37.899Z,1.00
2019-03-04T02:45:12.032Z,1.13
2019-03-04T02:47:40.397Z,1.20
2019-03-04T02:50:08.758Z,1.00
2019-03-04T02:52:37.138Z,1.17
2019-03-04T02:55:07.481Z,1.27
2019-03-04T02:57:35.836Z,1.00
2019-03-04T03:00:07.912Z,0.90
2019-03-04T03:02:36.232Z,1.03
2019-03-04T03:05:06.794Z,0.87
2019-03-04T03:07:35.166Z,1.00
2019-03-04T03:10:05.759Z,1.17
2019-03-04T03:12:34.117Z,1.07
2019-03-04T03:15:02.398Z,1.00
2019-03-04T03:17:30.703Z,1.10
2019-03-04T03:19:59.090Z,1.00
2019-03-04T03:22:27.380Z,0.90
2019-03-04T03:24:55.681Z,0.80
2019-03-04T03:27:23.990Z,1.00
2019-03-04T03:29:52.430Z,0.80
2019-03-04T03:32:20.710Z,0.80
2019-03-04T03:34:49.085Z,0.93
2019-03-04T03:37:17.553Z,0.70
2019-03-04T03:39:45.842Z,1.17
2019-03-04T03:42:14.367Z,1.10
2019-03-04T03:44:42.678Z,1.20
2019-03-04T03:47:10.966Z,1.03
2019-03-04T03:49:39.338Z,1.00
2019-03-04T03:52:07.716Z,1.13
2019-03-04T03:54:36.081Z,0.93
2019-03-04T03:57:05.257Z,1.07
2019-03-04T03:59:33.549Z,1.00
2019-03-04T04:02:01.864Z,1.07
2019-03-04T04:04:30.251Z,1.33
2019-03-04T04:06:58.550Z,1.10
2019-03-04T04:09:26.910Z,1.13
2019-03-04T04:11:55.266Z,1.33
2019-03-04T04:14:23.657Z,1.50
2019-03-04T04:16:52.028Z,1.20
2019-03-04T04:19:20.449Z,1.70
2019-03-04T04:21:48.737Z,1.77
2019-03-04T04:24:17.061Z,1.22
2019-03-04T04:26:45.350Z,1.27
2019-03-04T04:29:13.710Z,1.43
2019-03-04T04:31:42.964Z,1.40
2019-03-04T04:34:11.264Z,1.30
2019-03-04T04:36:39.557Z,1.40
2019-03-04T04:39:07.863Z,1.60
2019-03-04T04:41:36.265Z,1.50
2019-03-04T04:44:05.351Z,1.53
2019-03-04T04:46:48.512Z,1.83
2019-03-04T04:49:16.793Z,1.40
2019-03-04T04:51:45.086Z,1.83
2019-03-04T04:54:13.473Z,1.60
2019-03-04T04:56:41.748Z,1.50
2019-03-04T04:59:10.037Z,1.90
2019-03-04T05:01:38.350Z,1.70
2019-03-04T05:04:06.710Z,1.43
2019-03-04T05:06:35.000Z,1.60
2019-03-04T05:09:04.679Z,1.30
2019-03-04T05:11:32.962Z,1.47
2019-03-04T05:14:01.256Z,1.47
2019-03-04T05:16:29.557Z,1.17
2019-03-04T05:18:57.847Z,1.50
2019-03-04T05:21:26.138Z,1.33
2019-03-04T05:23:54.441Z,1.20
2019-03-04T05:26:22.801Z,1.10
2019-03-04T05:28:51.103Z,1.33
2019-03-04T05:31:19.419Z,1.27
2019-03-04T05:33:47.773Z,1.10
2019-03-04T05:36:16.074Z,1.20
2019-03-04T05:38:44.448Z,1.23
2019-03-04T05:41:13.679Z,1.00
2019-03-04T05:43:41.986Z,0.87
2019-03-04T05:46:10.416Z,1.07
2019-03-04T05:48:38.790Z,0.97
2019-03-04T05:51:07.093Z,0.90
2019-03-04T05:53:35.390Z,1.03
2019-03-04T05:56:04.867Z,1.02
2019-03-04T05:58:33.146Z,0.90
2019-03-04T06:01:22.110Z,1.20
2019-03-04T06:03:53.791Z,0.90
2019-03-04T06:06:23.869Z,0.72
2019-03-04T06:08:52.251Z,1.43
2019-03-04T06:11:20.532Z,1.50
2019-03-04T06:13:50.413Z,0.67
2019-03-04T06:16:18.698Z,1.00
2019-03-04T06:18:46.989Z,0.90
2019-03-04T06:21:15.353Z,1.13
2019-03-04T06:23:43.653Z,1.00
2019-03-04T06:26:11.969Z,1.00
2019-03-04T06:28:40.266Z,1.03
2019-03-04T06:31:09.329Z,1.10
2019-03-04T06:33:57.057Z,1.00
2019-03-04T06:36:25.412Z,1.07
2019-03-04T06:38:53.693Z,1.07
2019-03-04T06:41:22.773Z,1.10
2019-03-04T06:43:51.130Z,1.03
2019-03-04T06:46:19.413Z,1.07
2019-03-04T06:48:47.738Z,1.22
2019-03-04T06:51:25.488Z,1.40
2019-03-04T06:54:12.269Z,0.93
2019-03-04T06:56:54.487Z,1.90
2019-03-04T06:59:42.721Z,1.30
2019-03-04T07:02:23.477Z,1.03
2019-03-04T07:05:15.456Z,1.30
2019-03-04T07:07:43.764Z,1.20
2019-03-04T07:10:12.152Z,1.10
2019-03-04T07:12:40.470Z,1.20
2019-03-04T07:15:08.940Z,1.10
2019-03-04T07:17:37.247Z,1.10
2019-03-04T07:20:16.590Z,0.93
2019-03-04T07:22:48.471Z,1.30
2019-03-04T07:25:16.483Z,1.17
2019-03-04T07:27:44.928Z,1.05
2019-03-04T07:30:16.469Z,1.35
2019-03-04T07:32:45.966Z,1.20
2019-03-04T07:35:14.267Z,1.60
2019-03-04T07:37:42.671Z,1.30
2019-03-04T07:40:19.141Z,1.00
2019-03-04T07:42:47.436Z,1.20
2019-03-04T07:45:15.738Z,0.90
2019-03-04T07:47:44.099Z,1.27
2019-03-04T07:50:12.474Z,1.20
2019-03-04T07:52:40.861Z,1.40
2019-03-04T07:55:09.214Z,1.30
2019-03-04T07:57:37.522Z,1.55
2019-03-04T08:00:09.713Z,3.03
2019-03-04T08:02:37.992Z,1.50
2019-03-04T08:05:09.572Z,1.70
2019-03-04T08:07:46.553Z,1.43
2019-03-04T08:10:43.601Z,1.25
2019-03-04T08:13:31.439Z,1.55
2019-03-04T08:15:59.886Z,1.40
2019-03-04T08:18:28.180Z,1.27
2019-03-04T08:20:56.530Z,1.37
2019-03-04T08:23:24.846Z,1.73
2019-03-04T08:25:53.127Z,1.50
2019-03-04T08:28:21.414Z,2.03
2019-03-04T08:30:49.737Z,1.50
2019-03-04T08:33:18.017Z,1.53
2019-03-04T08:35:46.297Z,1.40
2019-03-04T08:38:14.801Z,1.50
2019-03-04T08:40:43.094Z,1.70
2019-03-04T08:43:11.433Z,2.08
2019-03-04T08:45:39.787Z,1.30
2019-03-04T08:48:08.083Z,1.90
2019-03-04T08:50:36.527Z,1.37
2019-03-04T08:53:05.406Z,1.77
2019-03-04T08:55:34.688Z,1.27
2019-03-04T08:58:03.062Z,1.60
2019-03-04T09:00:31.983Z,1.40
2019-03-04T09:03:00.293Z,0.77
2019-03-04T09:05:28.665Z,0.60
2019-03-04T09:07:57.052Z,0.53
2019-03-04T09:10:31.016Z,0.60
2019-03-04T09:12:59.297Z,0.57
2019-03-04T09:15:28.068Z,0.67
2019-03-04T09:17:56.390Z,421.97
2019-03-04T09:20:24.760Z,450.70
2019-03-04T09:22:53.922Z,139.63
2019-03-04T09:25:40.105Z,44.50
2019-03-04T09:28:08.420Z,13.37
2019-03-04T09:30:36.712Z,4.40
2019-03-04T09:33:05.413Z,1.30
2019-03-04T09:35:33.720Z,1.00
2019-03-04T09:38:02.033Z,0.70
2019-03-04T09:40:31.936Z,0.80
2019-03-04T09:43:01.207Z,0.50
2019-03-04T09:45:38.327Z,0.40
2019-03-04T09:47:59.594Z,0.40
2019-03-04T09:50:29.709Z,0.50
2019-03-04T09:52:58.001Z,0.33
2019-03-04T09:55:26.307Z,0.30
2019-03-04T09:57:54.669Z,0.50
2019-03-04T10:00:36.993Z,0.40
2019-03-04T10:03:41.692Z,0.30
2019-03-04T10:06:37.010Z,0.30
2019-03-04T10:09:26.648Z,0.50
2019-03-04T10:12:07.565Z,0.20
2019-03-04T10:15:05.210Z,0.40
2019-03-04T10:17:37.025Z,0.40
2019-03-04T10:20:23.157Z,0.50
2019-03-04T10:23:09.586Z,0.40
2019-03-04T10:25:59.456Z,0.70
2019-03-04T10:28:48.948Z,0.57
2019-03-04T10:31:31.489Z,0.63
2019-03-04T10:34:36.050Z,0.83
2019-03-04T10:37:24.510Z,0.80
2019-03-04T10:40:12.157Z,0.73
2019-03-04T10:42:49.583Z,3.10
2019-03-04T10:45:24.151Z,1.00
2019-03-04T10:47:52.790Z,1.00
2019-03-04T10:50:21.106Z,1.00
2019-03-04T10:52:49.405Z,1.00
2019-03-04T10:55:29.511Z,0.90
2019-03-04T10:58:05.756Z,0.93
2019-03-04T11:00:35.692Z,0.90
2019-03-04T11:03:04.726Z,1.20
2019-03-04T11:05:34.136Z,0.90
2019-03-04T11:08:02.435Z,1.43
2019-03-04T11:10:30.865Z,1.03
2019-03-04T11:12:59.145Z,0.97
2019-03-04T11:15:27.575Z,1.00
2019-03-04T11:17:55.869Z,1.10
2019-03-04T11:20:24.336Z,1.30
2019-03-04T11:22:53.517Z,1.27
2019-03-04T11:25:21.872Z,1.30
2019-03-04T11:27:50.258Z,1.23
2019-03-04T11:30:29.757Z,1.60
2019-03-04T11:32:58.070Z,1.53
2019-03-04T11:35:26.369Z,1.20
2019-03-04T11:37:54.645Z,1.37
2019-03-04T11:40:32.848Z,1.60
2019-03-04T11:43:01.221Z,1.70
2019-03-04T11:45:29.541Z,1.32
2019-03-04T11:47:57.837Z,1.37
2019-03-04T11:50:26.201Z,2.17
2019-03-04T11:52:54.497Z,2.00
2019-03-04T11:55:28.718Z,2.50
2019-03-04T11:57:57.049Z,1.97
2019-03-04T12:00:29.374Z,1.87
2019-03-04T12:02:57.678Z,1.97
2019-03-04T12:05:26.153Z,2.07
2019-03-04T12:07:54.522Z,2.17
2019-03-04T12:10:23.248Z,2.20
2019-03-04T12:12:51.671Z,2.00
2019-03-04T12:15:20.828Z,2.58
2019-03-04T12:17:50.737Z,2.60
2019-03-04T12:20:19.066Z,2.00
2019-03-04T12:22:47.353Z,2.10
2019-03-04T12:25:20.801Z,1.60
2019-03-04T12:27:49.106Z,2.00
2019-03-04T12:30:22.590Z,2.30
2019-03-04T12:32:51.932Z,2.33
2019-03-04T12:35:20.220Z,1.67
2019-03-04T12:37:48.594Z,1.20
2019-03-04T12:40:19.356Z,1.73
2019-03-04T12:42:47.639Z,1.77
2019-03-04T12:45:17.736Z,1.98
2019-03-04T12:47:46.017Z,2.00
2019-03-04T12:50:23.061Z,1.87
2019-03-04T12:52:51.441Z,1.57
2019-03-04T12:55:19.805Z,1.33
2019-03-04T12:57:48.455Z,3.07
2019-03-04T13:00:22.713Z,2.08
2019-03-04T13:02:57.693Z,1.90
2019-03-04T13:05:21.070Z,1.77
2019-03-04T13:07:49.673Z,1.70
2019-03-04T13:10:21.346Z,1.97
2019-03-04T13:12:49.658Z,2.17
2019-03-04T13:15:31.942Z,2.30
2019-03-04T13:18:00.285Z,1.73
2019-03-04T13:20:31.999Z,2.47
2019-03-04T13:23:00.282Z,2.20
2019-03-04T13:25:28.566Z,1.53
2019-03-04T13:27:56.870Z,2.08
2019-03-04T13:30:30.190Z,1.73
2019-03-04T13:32:59.184Z,2.33
2019-03-04T13:35:38.966Z,1.37
2019-03-04T13:38:07.309Z,2.23
2019-03-04T13:40:35.749Z,1.93
2019-03-04T13:43:04.527Z,1.27
2019-03-04T13:45:33.007Z,2.07
2019-03-04T13:48:01.343Z,1.53
2019-03-04T13:50:30.849Z,1.37
2019-03-04T13:53:00.844Z,1.50
2019-03-04T13:55:29.137Z,1.77
2019-03-04T13:57:58.476Z,1.77
2019-03-04T14:00:38.509Z,1.33
2019-03-04T14:03:06.874Z,1.90
2019-03-04T14:05:35.165Z,1.60
2019-03-04T14:08:04.369Z,1.47
2019-03-04T14:10:49.157Z,1.53
2019-03-04T14:13:17.463Z,1.85
2019-03-04T14:15:51.002Z,1.73
2019-03-04T14:18:19.396Z,1.30
2019-03-04T14:20:47.737Z,1.93
2019-03-04T14:23:16.028Z,1.37
2019-03-04T14:25:44.355Z,1.53
2019-03-04T14:28:14.286Z,1.20
2019-03-04T14:30:42.729Z,1.47
2019-03-04T14:33:11.150Z,1.40
2019-03-04T14:35:39.535Z,1.57
2019-03-04T14:38:07.858Z,1.27
2019-03-04T14:40:36.144Z,1.57
2019-03-04T14:43:15.388Z,1.13
2019-03-04T14:45:43.699Z,1.20
2019-03-04T14:48:11.995Z,1.83
2019-03-04T14:50:40.335Z,1.43
2019-03-04T14:53:08.697Z,1.40
2019-03-04T14:55:39.339Z,1.70
2019-03-04T14:58:07.811Z,1.50
2019-03-04T15:00:43.641Z,1.07
2019-03-04T15:03:20.670Z,1.40
2019-03-04T15:05:43.691Z,1.47
2019-03-04T15:08:12.080Z,1.75
2019-03-04T15:10:40.362Z,1.17
2019-03-04T15:13:09.965Z,1.37
2019-03-04T15:15:39.902Z,2.07
2019-03-04T15:18:08.265Z,1.30
2019-03-04T15:20:36.638Z,1.53
2019-03-04T15:23:05.265Z,1.82
2019-03-04T15:25:44.246Z,1.50
2019-03-04T15:28:25.904Z,1.57
2019-03-04T15:30:59.696Z,1.30
2019-03-04T15:33:27.998Z,1.30
2019-03-04T15:36:04.775Z,1.30
2019-03-04T15:38:37.812Z,1.37
2019-03-04T15:41:06.782Z,1.50
2019-03-04T15:43:35.628Z,1.60
2019-03-04T15:46:04.764Z,1.40
2019-03-04T15:48:34.717Z,1.40
2019-03-04T15:51:03.006Z,1.20
2019-03-04T15:53:31.362Z,1.33
2019-03-04T15:55:59.846Z,1.87
2019-03-04T15:58:28.145Z,1.30
2019-03-04T16:00:56.438Z,1.47
2019-03-04T16:03:24.807Z,1.13
2019-03-04T16:08:48.664Z,1.13
2019-03-04T16:11:16.976Z,1.97
2019-03-04T16:13:52.605Z,1.30
2019-03-04T16:16:15.286Z,1.32
2019-03-04T16:18:43.653Z,1.40
2019-03-04T16:21:12.100Z,1.32
2019-03-04T16:23:40.429Z,1.83
2019-03-04T16:26:11.478Z,1.10
2019-03-04T16:28:39.764Z,1.40
2019-03-04T16:31:08.066Z,1.83
2019-03-04T16:33:39.360Z,1.10
2019-03-04T16:36:06.456Z,1.33
2019-03-04T16:38:35.138Z,2.13
2019-03-04T16:41:03.460Z,2.57
2019-03-04T16:43:31.797Z,1.20
2019-03-04T16:46:00.132Z,1.07
2019-03-04T16:48:28.457Z,0.70
2019-03-04T16:50:56.771Z,0.93
2019-03-04T16:53:33.398Z,0.80
2019-03-04T16:56:01.768Z,1.20
2019-03-04T16:58:30.160Z,1.80
2019-03-04T17:01:00.084Z,0.97
2019-03-04T17:03:28.443Z,1.30
2019-03-04T17:05:56.741Z,1.20
2019-03-04T17:08:25.024Z,1.00
2019-03-04T17:10:53.345Z,1.25
2019-03-04T17:13:22.307Z,1.40
2019-03-04T17:15:50.670Z,1.17
2019-03-04T17:18:18.997Z,1.23
2019-03-04T17:20:47.352Z,1.00
2019-03-04T17:23:15.640Z,0.90
2019-03-04T17:25:44.004Z,1.23
2019-03-04T17:28:12.336Z,1.43
2019-03-04T17:30:40.645Z,1.63
2019-03-04T17:33:08.938Z,1.73
2019-03-04T17:35:37.316Z,1.50
2019-03-04T17:38:05.656Z,1.90
2019-03-04T17:40:33.958Z,1.70
2019-03-04T17:43:02.353Z,1.67
2019-03-04T17:45:30.718Z,2.00
2019-03-04T17:47:59.006Z,1.80
2019-03-04T17:50:36.677Z,4.50
2019-03-04T17:53:08.631Z,2.20
2019-03-04T17:55:36.916Z,1.97
2019-03-04T17:58:05.486Z,1.97
2019-03-04T18:00:34.703Z,2.07
2019-03-04T18:03:03.071Z,2.33
2019-03-04T18:05:31.358Z,2.40
2019-03-04T18:07:59.661Z,2.40
2019-03-04T18:10:30.765Z,1.93
2019-03-04T18:13:01.247Z,1.50
2019-03-04T18:15:37.795Z,2.00
2019-03-04T18:18:06.081Z,1.60
2019-03-04T18:20:34.945Z,1.70
2019-03-04T18:23:04.637Z,1.80
2019-03-04T18:25:57.576Z,1.50
2019-03-04T18:28:57.769Z,1.90
2019-03-04T18:31:36.949Z,1.83
2019-03-04T18:34:17.416Z,2.07
2019-03-04T18:36:54.822Z,1.40
2019-03-04T18:39:42.881Z,2.10
2019-03-04T18:42:25.951Z,1.90
2019-03-04T18:45:14.137Z,2.43
2019-03-04T18:48:00.572Z,1.60
2019-03-04T18:50:28.853Z,1.80
2019-03-04T18:52:57.499Z,1.60
2019-03-04T18:55:25.943Z,1.57
2019-03-04T18:57:54.432Z,1.60
2019-03-04T19:00:26.298Z,2.17
2019-03-04T19:02:54.717Z,1.80
2019-03-04T19:05:23.580Z,1.90
2019-03-04T19:07:51.961Z,2.10
2019-03-04T19:10:20.256Z,1.70
2019-03-04T19:12:48.553Z,1.90
2019-03-04T19:15:17.157Z,2.10
2019-03-04T19:17:45.524Z,1.77
2019-03-04T19:20:16.141Z,1.87
2019-03-04T19:22:44.434Z,2.15
2019-03-04T19:25:13.136Z,2.62
2019-03-04T19:27:41.469Z,2.00
2019-03-04T19:30:12.182Z,2.73
2019-03-04T19:32:40.545Z,3.00
2019-03-04T19:35:12.791Z,2.67
2019-03-04T19:37:41.095Z,2.80
2019-03-04T19:40:13.793Z,2.63
2019-03-04T19:42:42.326Z,2.30
2019-03-04T19:45:16.081Z,2.25
2019-03-04T19:47:44.366Z,2.20
2019-03-04T19:50:12.652Z,1.60
2019-03-04T19:52:40.943Z,1.53
2019-03-04T19:55:12.688Z,1.70
2019-03-04T19:57:41.306Z,1.20
2019-03-04T20:00:17.581Z,1.23
2019-03-04T20:02:46.411Z,1.17
2019-03-04T20:05:14.691Z,1.30
2019-03-04T20:07:43.888Z,1.10
2019-03-04T20:10:13.781Z,1.05
2019-03-04T20:12:42.056Z,1.20
2019-03-04T20:15:31.729Z,1.07
2019-03-04T20:18:00.028Z,1.30
2019-03-04T20:20:28.386Z,1.13
2019-03-04T20:22:56.699Z,1.03
2019-03-04T20:25:26.244Z,1.07
2019-03-04T20:27:54.643Z,0.90
2019-03-04T20:30:25.542Z,1.10
2019-03-04T20:32:55.393Z,1.13
2019-03-04T20:35:23.702Z,1.10
2019-03-04T20:38:01.332Z,1.40
2019-03-04T20:40:29.615Z,1.40
2019-03-04T20:42:57.914Z,1.60
2019-03-04T20:45:26.276Z,1.93
2019-03-04T20:47:54.550Z,2.03
2019-03-04T20:50:24.306Z,2.10
2019-03-04T20:52:52.742Z,2.37
2019-03-04T20:55:21.698Z,2.75
2019-03-04T20:57:50.054Z,3.90
2019-03-04T21:00:27.767Z,3.83
2019-03-04T21:02:56.346Z,4.00
2019-03-04T21:05:25.796Z,4.23
2019-03-04T21:07:54.574Z,4.43
2019-03-04T21:10:23.177Z,4.33
2019-03-04T21:12:52.521Z,3.90
2019-03-04T21:15:20.813Z,4.30
2019-03-04T21:17:49.261Z,5.03
2019-03-04T21:20:18.387Z,4.57
2019-03-04T21:22:47.407Z,4.17
2019-03-04T21:25:41.317Z,4.03
2019-03-04T21:28:15.459Z,4.50
2019-03-04T21:31:10.886Z,4.57
2019-03-04T21:33:42.504Z,3.60
2019-03-04T21:36:19.540Z,3.90
2019-03-04T21:38:47.853Z,3.00
2019-03-04T21:41:19.538Z,2.90
2019-03-04T21:43:51.108Z,3.03
2019-03-04T21:46:34.811Z,2.92
2019-03-04T21:49:22.819Z,2.70
2019-03-04T21:52:06.456Z,2.30
2019-03-04T21:54:36.449Z,2.23
2019-03-04T21:57:08.515Z,2.60
2019-03-04T21:59:36.883Z,2.37
2019-03-04T22:02:08.641Z,2.73
2019-03-04T22:04:37.893Z,2.13
2019-03-04T22:07:06.346Z,2.30
2019-03-04T22:09:34.717Z,2.50
2019-03-04T22:12:03.061Z,2.30
2019-03-04T22:14:31.373Z,2.47
2019-03-04T22:16:59.693Z,2.33
2019-03-04T22:19:27.994Z,2.27
2019-03-04T22:21:56.633Z,2.03
2019-03-04T22:24:25.093Z,1.93
2019-03-04T22:26:53.423Z,2.00
2019-03-04T22:29:21.704Z,2.02
2019-03-04T22:31:50.108Z,2.23
2019-03-04T22:34:18.451Z,1.97
2019-03-04T22:36:46.872Z,2.27
2019-03-04T22:39:15.315Z,2.70
2019-03-04T22:41:43.671Z,2.00
2019-03-04T22:44:12.084Z,1.90
2019-03-04T22:46:40.426Z,2.13
2019-03-04T22:49:08.717Z,2.70
2019-03-04T22:51:37.096Z,2.60
2019-03-04T22:54:05.620Z,2.57
2019-03-04T22:56:33.908Z,2.03
2019-03-04T22:59:02.214Z,2.70
2019-03-04T23:01:35.752Z,2.00
2019-03-04T23:04:07.497Z,2.03
2019-03-04T23:06:41.506Z,2.43
2019-03-04T23:09:13.303Z,2.47
2019-03-04T23:11:44.905Z,2.33
2019-03-04T23:14:19.063Z,3.97
2019-03-04T23:16:50.273Z,2.20
2019-03-04T23:19:18.581Z,2.10
2019-03-04T23:21:46.920Z,1.80
2019-03-04T23:24:15.247Z,2.20
2019-03-04T23:26:43.554Z,2.13
2019-03-04T23:29:11.842Z,3.53
2019-03-04T23:31:40.145Z,2.87
2019-03-04T23:34:08.430Z,2.43
2019-03-04T23:36:36.813Z,2.77
2019-03-04T23:39:07.017Z,2.37
2019-03-04T23:41:35.304Z,2.50
2019-03-04T23:44:04.407Z,2.57
2019-03-04T23:46:32.758Z,2.33
2019-03-04T23:49:01.072Z,2.20
2019-03-04T23:51:29.375Z,2.77
2019-03-04T23:53:57.668Z,2.63
2019-03-04T23:56:25.993Z,2.50
2019-03-04T23:58:54.281Z,2.77
